createdAt,value
2023-04-02T00:00:01.363Z,9.95
2023-04-02T00:02:35.489Z,11.82
2023-04-02T00:05:19.462Z,8.25
2023-04-02T00:07:58.114Z,7.97
2023-04-02T00:10:31.277Z,7.88
2023-04-02T00:13:05.171Z,10.25
2023-04-02T00:15:36.286Z,11.27
2023-04-02T00:18:06.176Z,7.70
2023-04-02T00:20:39.158Z,7.78
2023-04-02T00:23:07.756Z,10.45
2023-04-02T00:25:44.631Z,9.90
2023-04-02T00:28:14.780Z,7.85
2023-04-02T00:30:57.146Z,9.27
2023-04-02T00:33:27.746Z,9.85
2023-04-02T00:35:56.883Z,14.75
2023-04-02T00:38:33.353Z,9.82
2023-04-02T00:41:05.219Z,8.45
2023-04-02T00:43:35.953Z,8.80
2023-04-02T00:46:07.032Z,11.43
2023-04-02T00:48:42.204Z,8.65
2023-04-02T00:51:30.867Z,7.53
2023-04-02T00:54:01.512Z,9.38
2023-04-02T00:56:41.412Z,11.80
2023-04-02T00:59:21.898Z,10.18
2023-04-02T01:01:54.179Z,9.88
2023-04-02T01:04:37.075Z,8.27
2023-04-02T01:07:10.483Z,10.30
2023-04-02T01:09:38.493Z,14.13
2023-04-02T01:12:16.486Z,11.20
2023-04-02T01:15:01.014Z,13.68
2023-04-02T01:17:48.965Z,13.88
2023-04-02T01:20:17.243Z,18.38
2023-04-02T01:23:05.756Z,13.50
2023-04-02T01:25:41.848Z,13.45
2023-04-02T01:28:29.532Z,16.90
2023-04-02T01:30:58.829Z,13.25
2023-04-02T01:33:30.956Z,14.57
2023-04-02T01:36:18.454Z,12.73
2023-04-02T01:38:55.828Z,13.23
2023-04-02T01:41:31.964Z,11.82
2023-04-02T01:44:12.112Z,9.88
2023-04-02T01:46:41.864Z,13.60
2023-04-02T01:49:15.926Z,11.85
2023-04-02T01:51:45.521Z,12.25
2023-04-02T01:54:18.941Z,11.57
2023-04-02T01:56:48.240Z,8.07
2023-04-02T01:59:18.406Z,5.60
2023-04-02T02:02:22.589Z,8.15
2023-04-02T02:04:51.528Z,8.63
2023-04-02T02:07:21.105Z,8.20
2023-04-02T02:09:54.403Z,9.05
2023-04-02T02:12:23.769Z,9.77
2023-04-02T02:14:52.558Z,7.53
2023-04-02T02:17:34.410Z,10.05
2023-04-02T02:20:06.662Z,7.15
2023-04-02T02:22:39.636Z,8.63
2023-04-02T02:25:15.655Z,11.32
2023-04-02T02:27:46.364Z,11.10
2023-04-02T02:30:18.211Z,12.60
2023-04-02T02:33:14.522Z,8.10
2023-04-02T02:35:56.262Z,8.73
2023-04-02T02:38:33.307Z,9.48
2023-04-02T02:41:12.140Z,8.60
2023-04-02T02:43:42.995Z,7.47
2023-04-02T02:46:16.920Z,8.05
2023-04-02T02:48:48.507Z,8.95
2023-04-02T02:51:20.569Z,8.57
2023-04-02T02:53:53.166Z,8.43
2023-04-02T02:56:24.439Z,9.50
2023-04-02T02:58:55.030Z,8.60
2023-04-02T03:01:31.326Z,13.48
2023-04-02T03:04:06.137Z,9.07
2023-04-02T03:06:36.574Z,9.25
2023-04-02T03:09:13.494Z,7.93
2023-04-02T03:11:48.966Z,9.20
2023-04-02T03:14:21.641Z,8.80
2023-04-02T03:16:53.842Z,7.82
2023-04-02T03:19:29.213Z,9.45
2023-04-02T03:22:09.665Z,9.20
2023-04-02T03:25:03.969Z,7.85
2023-04-02T03:27:36.168Z,7.25
2023-04-02T03:30:05.339Z,8.18
2023-04-02T03:32:49.622Z,11.60
2023-04-02T03:35:27.428Z,7.77
2023-04-02T03:37:59.846Z,8.85
2023-04-02T03:40:47.736Z,11.27
2023-04-02T03:43:15.960Z,10.35
2023-04-02T03:45:48.962Z,9.90
2023-04-02T03:48:40.743Z,10.45
2023-04-02T03:51:17.936Z,8.65
2023-04-02T03:53:49.901Z,8.90
2023-04-02T03:56:40.976Z,10.93
2023-04-02T03:59:23.278Z,10.38
2023-04-02T04:02:01.451Z,13.55
2023-04-02T04:04:33.620Z,7.75
2023-04-02T04:07:02.796Z,9.05
2023-04-02T04:09:36.539Z,11.52
2023-04-02T04:12:23.980Z,11.57
2023-04-02T04:15:06.965Z,15.77
2023-04-02T04:18:02.651Z,15.63
2023-04-02T04:20:46.101Z,13.02
2023-04-02T04:23:25.762Z,16.45
2023-04-02T04:26:05.450Z,13.00
2023-04-02T04:28:58.500Z,10.90
2023-04-02T04:31:33.993Z,11.48
2023-04-02T04:34:07.212Z,10.57
2023-04-02T04:36:54.146Z,11.85
2023-04-02T04:39:30.648Z,10.13
2023-04-02T04:42:05.132Z,12.10
2023-04-02T04:44:40.690Z,13.70
2023-04-02T04:47:21.561Z,12.25
2023-04-02T04:49:59.205Z,16.35
2023-04-02T04:52:30.506Z,19.00
2023-04-02T04:55:01.805Z,12.82
2023-04-02T04:57:39.145Z,13.13
2023-04-02T05:00:14.419Z,12.35
2023-04-02T05:03:17.404Z,17.45
2023-04-02T05:05:46.083Z,15.57
2023-04-02T05:08:21.039Z,14.40
2023-04-02T05:10:51.920Z,12.23
2023-04-02T05:13:26.303Z,13.70
2023-04-02T05:16:05.633Z,13.77
2023-04-02T05:18:40.247Z,16.33
2023-04-02T05:21:28.311Z,17.33
2023-04-02T05:24:15.276Z,19.02
2023-04-02T05:26:46.533Z,18.15
2023-04-02T05:29:17.865Z,15.10
2023-04-02T05:32:04.690Z,18.70
2023-04-02T05:34:36.316Z,18.55
2023-04-02T05:37:09.158Z,20.67
2023-04-02T05:39:38.908Z,20.85
2023-04-02T05:42:09.249Z,20.20
2023-04-02T05:45:18.974Z,24.65
2023-04-02T05:47:51.835Z,23.60
2023-04-02T05:50:51.165Z,22.98
2023-04-02T05:53:26.070Z,25.75
2023-04-02T05:56:03.965Z,22.60
2023-04-02T05:58:45.627Z,23.85
2023-04-02T06:01:30.760Z,26.85
2023-04-02T06:04:03.275Z,26.35
2023-04-02T06:06:41.342Z,20.73
2023-04-02T06:09:12.993Z,22.42
2023-04-02T06:11:45.457Z,20.98
2023-04-02T06:14:18.833Z,19.60
2023-04-02T06:16:50.065Z,23.85
2023-04-02T06:19:27.232Z,17.90
2023-04-02T06:22:08.921Z,27.33
2023-04-02T06:24:40.850Z,25.17
2023-04-02T06:27:12.926Z,22.52
2023-04-02T06:29:45.579Z,21.23
2023-04-02T06:32:19.327Z,21.63
2023-04-02T06:34:47.744Z,19.75
2023-04-02T06:37:23.462Z,21.80
2023-04-02T06:39:59.642Z,22.50
2023-04-02T06:42:38.359Z,20.75
2023-04-02T06:45:41.273Z,18.20
2023-04-02T06:48:18.119Z,18.67
2023-04-02T06:50:49.576Z,18.58
2023-04-02T06:53:45.813Z,16.98
2023-04-02T06:56:23.198Z,17.38
2023-04-02T06:58:51.604Z,18.23
2023-04-02T07:01:29.049Z,19.25
2023-04-02T07:04:00.901Z,18.52
2023-04-02T07:06:39.878Z,16.35
2023-04-02T07:09:14.687Z,18.23
2023-04-02T07:11:48.366Z,16.35
2023-04-02T07:14:19.809Z,22.27
2023-04-02T07:16:50.460Z,17.98
2023-04-02T07:19:21.811Z,13.15
2023-04-02T07:21:54.072Z,14.68
2023-04-02T07:24:26.314Z,13.50
2023-04-02T07:26:57.649Z,21.23
2023-04-02T07:29:26.134Z,15.80
2023-04-02T07:31:54.700Z,17.13
2023-04-02T07:34:24.783Z,17.85
2023-04-02T07:36:55.904Z,14.65
2023-04-02T07:39:24.501Z,11.73
2023-04-02T07:41:53.820Z,14.63
2023-04-02T07:44:23.005Z,13.00
2023-04-02T07:46:51.753Z,17.13
2023-04-02T07:49:20.559Z,11.05
2023-04-02T07:51:49.496Z,9.10
2023-04-02T07:54:17.843Z,13.02
2023-04-02T07:56:47.034Z,12.57
2023-04-02T07:59:19.062Z,12.93
2023-04-02T08:01:48.333Z,13.20
2023-04-02T08:04:18.489Z,13.75
2023-04-02T08:06:47.933Z,13.27
2023-04-02T08:09:17.140Z,11.15
2023-04-02T08:11:46.761Z,13.23
2023-04-02T08:14:18.726Z,9.75
2023-04-02T08:16:47.498Z,11.55
2023-04-02T08:19:16.555Z,8.48
2023-04-02T08:21:44.815Z,10.27
2023-04-02T08:24:15.048Z,7.53
2023-04-02T08:26:45.478Z,11.50
2023-04-02T08:29:16.273Z,11.65
2023-04-02T08:31:47.961Z,10.55
2023-04-02T08:34:17.136Z,5.85
2023-04-02T08:36:46.752Z,11.02
2023-04-02T08:39:17.897Z,10.82
2023-04-02T08:41:57.053Z,12.27
2023-04-02T08:44:48.827Z,12.75
2023-04-02T08:47:18.998Z,12.05
2023-04-02T08:49:52.601Z,12.57
2023-04-02T08:52:26.054Z,9.68
2023-04-02T08:54:56.334Z,14.25
2023-04-02T08:57:48.342Z,19.15
2023-04-02T09:00:22.094Z,14.27
2023-04-02T09:03:04.867Z,12.45
2023-04-02T09:05:35.989Z,12.95
2023-04-02T09:08:06.289Z,13.82
2023-04-02T09:10:41.625Z,11.70
2023-04-02T09:13:31.399Z,14.50
2023-04-02T09:16:05.078Z,15.13
2023-04-02T09:18:35.554Z,16.17
2023-04-02T09:21:17.330Z,14.57
2023-04-02T09:23:45.579Z,13.57
2023-04-02T09:26:22.038Z,13.82
2023-04-02T09:29:00.640Z,8.90
2023-04-02T09:31:37.620Z,12.23
2023-04-02T09:34:26.130Z,12.13
2023-04-02T09:36:54.467Z,11.75
2023-04-02T09:39:26.895Z,9.57
2023-04-02T09:42:05.192Z,8.50
2023-04-02T09:44:36.753Z,7.43
2023-04-02T09:47:24.024Z,6.18
2023-04-02T09:49:52.661Z,11.27
2023-04-02T09:52:30.944Z,8.55
2023-04-02T09:55:09.521Z,7.57
2023-04-02T09:57:39.727Z,6.70
2023-04-02T10:00:25.366Z,6.82
2023-04-02T10:03:22.118Z,6.80
2023-04-02T10:06:04.418Z,5.57
2023-04-02T10:08:36.320Z,5.72
2023-04-02T10:11:07.341Z,5.32
2023-04-02T10:13:54.376Z,6.07
2023-04-02T10:16:32.963Z,9.70
2023-04-02T10:19:07.568Z,8.88
2023-04-02T10:21:38.281Z,7.28
2023-04-02T10:24:13.386Z,5.65
2023-04-02T10:26:47.719Z,6.93
2023-04-02T10:29:23.073Z,11.07
2023-04-02T10:31:56.998Z,6.22
2023-04-02T10:34:29.018Z,5.57
2023-04-02T10:36:59.143Z,4.72
2023-04-02T10:39:33.270Z,5.43
2023-04-02T10:42:12.227Z,5.65
2023-04-02T10:44:44.772Z,10.90
2023-04-02T10:47:18.648Z,5.30
2023-04-02T10:52:22.380Z,5.10
2023-04-02T10:54:53.700Z,5.30
2023-04-02T10:57:21.883Z,12.05
2023-04-02T11:00:10.278Z,6.10
2023-04-02T11:03:06.089Z,4.45
2023-04-02T11:05:46.845Z,4.07
2023-04-02T11:08:24.513Z,5.07
2023-04-02T11:10:54.969Z,8.20
2023-04-02T11:13:29.135Z,6.80
2023-04-02T11:15:57.441Z,4.03
2023-04-02T11:18:34.251Z,4.13
2023-04-02T11:21:04.093Z,5.57
2023-04-02T11:23:53.481Z,4.05
2023-04-02T11:26:30.637Z,7.57
2023-04-02T11:29:22.106Z,9.45
2023-04-02T11:31:51.574Z,7.45
2023-04-02T11:35:03.028Z,6.53
2023-04-02T11:37:43.882Z,4.45
2023-04-02T11:40:12.170Z,8.30
2023-04-02T11:42:40.904Z,7.57
2023-04-02T11:45:24.043Z,5.75
2023-04-02T11:48:00.938Z,6.37
2023-04-02T11:50:35.721Z,4.75
2023-04-02T11:53:20.766Z,5.25
2023-04-02T11:56:06.336Z,4.45
2023-04-02T11:59:04.509Z,5.45
2023-04-02T12:01:32.836Z,3.35
2023-04-02T12:04:19.739Z,5.88
2023-04-02T12:06:57.205Z,6.45
2023-04-02T12:09:36.742Z,7.20
2023-04-02T12:12:16.877Z,5.72
2023-04-02T12:15:05.196Z,3.92
2023-04-02T12:17:39.152Z,8.38
2023-04-02T12:20:10.119Z,5.35
2023-04-02T12:22:42.064Z,4.68
2023-04-02T12:25:22.061Z,4.18
2023-04-02T12:28:04.200Z,4.80
2023-04-02T12:30:34.503Z,3.70
2023-04-02T12:33:23.116Z,4.55
2023-04-02T12:35:57.265Z,8.30
2023-04-02T12:38:29.800Z,2.70
2023-04-02T12:40:59.608Z,5.63
2023-04-02T12:43:32.896Z,4.50
2023-04-02T12:46:02.351Z,3.22
2023-04-02T12:48:32.799Z,5.03
2023-04-02T12:51:02.368Z,2.80
2023-04-02T12:53:37.090Z,7.78
2023-04-02T12:56:05.837Z,6.00
2023-04-02T12:58:39.970Z,5.03
2023-04-02T13:01:15.015Z,3.92
2023-04-02T13:04:00.028Z,3.22
2023-04-02T13:06:30.494Z,7.53
2023-04-02T13:09:00.333Z,3.55
2023-04-02T13:11:41.359Z,3.25
2023-04-02T13:14:17.788Z,2.97
2023-04-02T13:16:47.093Z,2.75
2023-04-02T13:19:19.135Z,2.50
2023-04-02T13:21:47.443Z,3.05
2023-04-02T13:24:23.179Z,3.83
2023-04-02T13:26:52.470Z,5.22
2023-04-02T13:29:22.409Z,3.88
2023-04-02T13:31:53.547Z,3.20
2023-04-02T13:34:22.979Z,3.33
2023-04-02T13:36:53.974Z,4.45
2023-04-02T13:39:22.663Z,2.55
2023-04-02T13:41:53.653Z,6.22
2023-04-02T13:44:24.100Z,4.07
2023-04-02T13:46:53.836Z,5.60
2023-04-02T13:49:22.989Z,2.90
2023-04-02T13:51:53.760Z,6.38
2023-04-02T13:54:33.796Z,3.20
2023-04-02T13:57:06.022Z,5.28
2023-04-02T13:59:36.548Z,4.13
2023-04-02T14:02:08.469Z,2.65
2023-04-02T14:04:41.214Z,2.00
2023-04-02T14:07:12.117Z,4.35
2023-04-02T14:09:48.164Z,1.95
2023-04-02T14:12:38.331Z,4.10
2023-04-02T14:15:06.587Z,3.35
2023-04-02T14:17:47.602Z,2.78
2023-04-02T14:20:26.233Z,3.10
2023-04-02T14:23:15.370Z,4.13
2023-04-02T14:25:50.994Z,5.60
2023-04-02T14:28:38.086Z,4.30
2023-04-02T14:31:12.511Z,2.55
2023-04-02T14:33:48.493Z,5.80
2023-04-02T14:36:27.678Z,2.95
2023-04-02T14:38:57.185Z,2.10
2023-04-02T14:41:37.593Z,5.55
2023-04-02T14:44:08.265Z,3.80
2023-04-02T14:46:42.028Z,2.28
2023-04-02T14:49:16.642Z,2.60
2023-04-02T14:51:55.090Z,3.08
2023-04-02T14:54:37.372Z,3.67
2023-04-02T14:57:09.028Z,3.17
2023-04-02T14:59:44.026Z,2.88
2023-04-02T15:02:15.049Z,3.90
2023-04-02T15:07:27.270Z,4.35
2023-04-02T15:10:20.218Z,2.60
2023-04-02T15:12:49.962Z,1.77
2023-04-02T15:15:29.701Z,4.68
2023-04-02T15:18:02.685Z,5.75
2023-04-02T15:20:38.106Z,2.78
2023-04-02T15:23:18.026Z,3.05
2023-04-02T15:25:51.927Z,5.47
2023-04-02T15:28:32.112Z,2.70
2023-04-02T15:31:07.284Z,4.13
2023-04-02T15:33:45.588Z,4.88
2023-04-02T15:36:32.708Z,3.67
2023-04-02T15:39:05.315Z,3.75
2023-04-02T15:41:38.578Z,7.28
2023-04-02T15:44:06.735Z,4.90
2023-04-02T15:46:53.022Z,3.65
2023-04-02T15:49:42.687Z,5.68
2023-04-02T15:52:13.697Z,4.60
2023-04-02T15:55:02.727Z,3.25
2023-04-02T15:57:46.495Z,3.60
2023-04-02T16:00:16.667Z,2.40
2023-04-02T16:02:50.100Z,3.25
2023-04-02T16:05:27.443Z,1.40
2023-04-02T16:07:58.797Z,3.50
2023-04-02T16:10:43.008Z,3.08
2023-04-02T16:13:22.833Z,1.83
2023-04-02T16:16:11.438Z,4.78
2023-04-02T16:18:44.377Z,2.15
2023-04-02T16:21:16.951Z,1.83
2023-04-02T16:23:45.971Z,5.10
2023-04-02T16:26:14.128Z,3.45
2023-04-02T16:28:51.417Z,3.00
2023-04-02T16:31:38.335Z,3.15
2023-04-02T16:34:06.400Z,4.07
2023-04-02T16:36:47.325Z,3.78
2023-04-02T16:39:15.437Z,5.97
2023-04-02T16:41:51.216Z,2.83
2023-04-02T16:44:19.661Z,3.38
2023-04-02T16:47:05.102Z,3.13
2023-04-02T16:49:48.861Z,1.83
2023-04-02T16:52:32.257Z,3.33
2023-04-02T16:55:05.647Z,2.10
2023-04-02T16:57:37.230Z,4.00
2023-04-02T17:00:11.852Z,2.85
2023-04-02T17:02:46.372Z,3.17
2023-04-02T17:05:31.147Z,2.55
2023-04-02T17:08:01.759Z,6.20
2023-04-02T17:10:31.667Z,2.45
2023-04-02T17:13:11.954Z,2.58
2023-04-02T17:15:40.677Z,2.45
2023-04-02T17:18:14.682Z,2.58
2023-04-02T17:20:43.367Z,3.85
2023-04-02T17:23:15.452Z,3.17
2023-04-02T17:26:10.979Z,4.13
2023-04-02T17:28:40.237Z,9.00
2023-04-02T17:31:14.693Z,1.75
2023-04-02T17:33:42.971Z,4.93
2023-04-02T17:36:14.912Z,3.17
2023-04-02T17:38:43.661Z,5.25
2023-04-02T17:41:38.568Z,2.67
2023-04-02T17:44:26.829Z,3.22
2023-04-02T17:47:16.268Z,2.20
2023-04-02T17:50:05.872Z,4.03
2023-04-02T17:52:39.954Z,2.50
2023-04-02T17:55:17.379Z,5.70
2023-04-02T17:57:52.350Z,7.32
2023-04-02T18:00:20.414Z,5.97
2023-04-02T18:03:09.349Z,5.18
2023-04-02T18:05:49.015Z,3.10
2023-04-02T18:08:26.032Z,2.30
2023-04-02T18:11:03.374Z,4.72
2023-04-02T18:13:34.910Z,4.10
2023-04-02T18:16:15.501Z,2.22
2023-04-02T18:18:45.989Z,1.60
2023-04-02T18:21:32.290Z,3.03
2023-04-02T18:24:10.294Z,2.30
2023-04-02T18:26:51.156Z,1.60
2023-04-02T18:29:29.275Z,2.03
2023-04-02T18:32:14.644Z,2.17
2023-04-02T18:35:04.115Z,2.10
2023-04-02T18:37:38.345Z,1.73
2023-04-02T18:40:16.866Z,2.22
2023-04-02T18:42:47.881Z,2.10
2023-04-02T18:45:16.109Z,2.78
2023-04-02T18:47:48.723Z,2.90
2023-04-02T18:50:28.939Z,2.60
2023-04-02T18:53:02.894Z,4.25
2023-04-02T18:58:23.937Z,4.22
2023-04-02T19:00:58.265Z,4.50
2023-04-02T19:03:29.697Z,1.80
2023-04-02T19:06:03.320Z,4.97
2023-04-02T19:08:35.365Z,2.40
2023-04-02T19:11:15.700Z,2.33
2023-04-02T19:13:45.068Z,1.75
2023-04-02T19:16:16.651Z,4.75
2023-04-02T19:18:45.098Z,5.65
2023-04-02T19:21:15.771Z,2.42
2023-04-02T19:23:57.140Z,3.97
2023-04-02T19:26:36.434Z,3.53
2023-04-02T19:29:04.441Z,2.50
2023-04-02T19:31:49.909Z,3.83
2023-04-02T19:34:24.616Z,4.32
2023-04-02T19:36:57.057Z,3.85
2023-04-02T19:39:46.557Z,9.90
2023-04-02T19:42:20.977Z,10.15
2023-04-02T19:44:51.381Z,3.70
2023-04-02T19:47:19.938Z,2.75
2023-04-02T19:49:48.229Z,6.95
2023-04-02T19:52:19.464Z,2.90
2023-04-02T19:54:47.756Z,2.92
2023-04-02T19:57:19.413Z,3.25
2023-04-02T19:59:47.981Z,5.25
2023-04-02T20:02:18.668Z,4.90
2023-04-02T20:04:47.395Z,5.00
2023-04-02T20:07:21.629Z,4.28
2023-04-02T20:09:50.072Z,6.32
2023-04-02T20:12:18.511Z,3.53
2023-04-02T20:14:49.211Z,2.17
2023-04-02T20:17:17.817Z,2.20
2023-04-02T20:19:46.478Z,2.40
2023-04-02T20:22:15.374Z,3.67
2023-04-02T20:24:44.293Z,5.90
2023-04-02T20:27:13.213Z,4.47
2023-04-02T20:29:42.776Z,6.93
2023-04-02T20:32:12.867Z,3.83
2023-04-02T20:34:41.693Z,3.00
2023-04-02T20:37:11.062Z,4.97
2023-04-02T20:39:39.831Z,6.00
2023-04-02T20:42:14.361Z,3.75
2023-04-02T20:44:43.032Z,3.70
2023-04-02T20:47:12.397Z,4.40
2023-04-02T20:49:43.637Z,3.90
2023-04-02T20:52:12.674Z,7.35
2023-04-02T20:54:43.313Z,4.45
2023-04-02T20:57:14.870Z,2.63
2023-04-02T20:59:43.754Z,4.00
2023-04-02T21:02:12.709Z,4.28
2023-04-02T21:04:44.899Z,2.70
2023-04-02T21:07:13.687Z,4.40
2023-04-02T21:09:44.362Z,4.38
2023-04-02T21:12:15.999Z,2.35
2023-04-02T21:14:45.412Z,6.63
2023-04-02T21:17:14.350Z,3.78
2023-04-02T21:19:43.358Z,4.45
2023-04-02T21:22:14.896Z,3.83
2023-04-02T21:24:43.261Z,2.83
2023-04-02T21:27:11.514Z,3.60
2023-04-02T21:29:39.917Z,4.47
2023-04-02T21:32:20.272Z,3.35
2023-04-02T21:34:50.709Z,7.30
2023-04-02T21:37:19.922Z,5.45
2023-04-02T21:39:48.410Z,2.30
2023-04-02T21:42:19.984Z,4.47
2023-04-02T21:44:48.765Z,6.40
2023-04-02T21:47:17.855Z,5.30
2023-04-02T21:49:47.012Z,8.27
2023-04-02T21:52:15.533Z,9.85
2023-04-02T21:54:46.413Z,8.32
2023-04-02T21:57:15.182Z,10.25
2023-04-02T21:59:44.673Z,13.48
2023-04-02T22:02:15.423Z,20.30
2023-04-02T22:04:46.741Z,12.15
2023-04-02T22:07:15.488Z,8.02
2023-04-02T22:09:43.742Z,9.05
2023-04-02T22:12:15.236Z,15.20
2023-04-02T22:14:48.348Z,12.60
2023-04-02T22:17:17.417Z,9.30
2023-04-02T22:19:46.225Z,5.38
2023-04-02T22:22:15.349Z,6.75
2023-04-02T22:24:43.688Z,5.15
2023-04-02T22:27:14.903Z,5.55
2023-04-02T22:29:45.731Z,5.80
2023-04-02T22:32:14.661Z,4.20
2023-04-02T22:34:46.103Z,3.15
2023-04-02T22:37:14.804Z,3.60
2023-04-02T22:39:45.734Z,3.85
2023-04-02T22:42:17.052Z,3.90
2023-04-02T22:44:49.743Z,3.85
2023-04-02T22:47:21.596Z,8.05
2023-04-02T22:49:49.892Z,3.42
2023-04-02T22:52:21.037Z,4.28
2023-04-02T22:54:49.391Z,8.30
2023-04-02T22:57:20.881Z,3.90
2023-04-02T22:59:49.463Z,4.82
2023-04-02T23:02:21.107Z,5.82
2023-04-02T23:04:50.532Z,3.60
2023-04-02T23:07:19.615Z,4.22
2023-04-02T23:09:49.830Z,7.78
2023-04-02T23:12:21.165Z,6.15
2023-04-02T23:14:52.677Z,5.57
2023-04-02T23:17:23.887Z,4.63
2023-04-02T23:19:52.381Z,6.00
2023-04-02T23:22:21.657Z,4.68
2023-04-02T23:24:50.327Z,7.13
2023-04-02T23:27:18.926Z,5.93
2023-04-02T23:29:47.863Z,5.75
2023-04-02T23:32:19.473Z,5.10
2023-04-02T23:34:48.103Z,6.60
2023-04-02T23:37:17.387Z,7.22
2023-04-02T23:39:46.094Z,5.07
2023-04-02T23:42:17.578Z,7.25
2023-04-02T23:44:46.139Z,5.28
2023-04-02T23:47:14.607Z,5.32
2023-04-02T23:49:47.764Z,9.68
2023-04-02T23:52:16.667Z,5.15
2023-04-02T23:54:46.281Z,5.25
2023-04-02T23:57:17.195Z,4.68
2023-04-02T23:59:46.561Z,7.55
